createdAt,value
2023-04-15T00:00:29.116Z,96254.09
2023-04-15T00:03:30.871Z,96252.13
2023-04-15T00:06:32.548Z,96246.44
2023-04-15T00:09:34.035Z,96249.34
2023-04-15T00:12:35.559Z,96246.31
2023-04-15T00:15:37.631Z,96240.69
2023-04-15T00:18:39.223Z,96245.84
2023-04-15T00:21:40.749Z,96233.84
2023-04-15T00:24:42.995Z,96236.03
2023-04-15T00:27:44.512Z,96236.34
2023-04-15T00:30:46.311Z,96244.09
2023-04-15T00:33:48.706Z,96233.94
2023-04-15T00:36:53.602Z,96231.56
2023-04-15T00:39:55.676Z,96233.06
2023-04-15T00:42:57.719Z,96232.50
2023-04-15T00:46:00.943Z,96228.63
2023-04-15T00:49:04.087Z,96231.88
2023-04-15T00:52:05.708Z,96229.53
2023-04-15T00:55:08.119Z,96225.06
2023-04-15T00:58:09.736Z,96232.50
2023-04-15T01:01:11.451Z,96235.59
2023-04-15T01:04:13.157Z,96226.00
2023-04-15T01:07:15.105Z,96229.00
2023-04-15T01:10:16.637Z,96218.09
2023-04-15T01:13:18.144Z,96220.59
2023-04-15T01:16:20.166Z,96221.03
2023-04-15T01:19:22.019Z,96224.72
2023-04-15T01:22:26.720Z,96210.56
2023-04-15T01:25:33.205Z,96211.72
2023-04-15T01:28:36.184Z,96209.09
2023-04-15T01:31:39.434Z,96210.09
2023-04-15T01:34:40.964Z,96211.50
2023-04-15T01:37:42.627Z,96210.50
2023-04-15T01:40:44.964Z,96214.53
2023-04-15T01:43:46.708Z,96213.16
2023-04-15T01:46:48.389Z,96213.84
2023-04-15T01:49:49.889Z,96218.78
2023-04-15T01:52:51.380Z,96212.09
2023-04-15T01:55:53.210Z,96207.25
2023-04-15T01:58:54.683Z,96204.84
2023-04-15T02:01:56.191Z,96194.09
2023-04-15T02:04:58.039Z,96205.44
2023-04-15T02:07:59.500Z,96210.56
2023-04-15T02:11:01.290Z,96206.72
2023-04-15T02:14:06.851Z,96207.94
2023-04-15T02:17:08.490Z,96208.75
2023-04-15T02:20:10.690Z,96205.72
2023-04-15T02:23:12.321Z,96202.03
2023-04-15T02:26:14.190Z,96202.03
2023-04-15T02:29:15.848Z,96204.25
2023-04-15T02:32:17.585Z,96199.41
2023-04-15T02:35:19.853Z,96200.00
2023-04-15T02:38:21.390Z,96207.13
2023-04-15T02:41:27.131Z,96196.16
2023-04-15T02:44:28.685Z,96196.41
2023-04-15T02:47:37.566Z,96199.88
2023-04-15T02:50:40.899Z,96205.56
2023-04-15T02:53:44.306Z,96203.34
2023-04-15T02:56:45.724Z,96201.72
2023-04-15T02:59:47.287Z,96196.03
2023-04-15T03:02:52.461Z,96194.63
2023-04-15T03:05:54.319Z,96198.28
2023-04-15T03:08:56.908Z,96198.09
2023-04-15T03:11:58.540Z,96199.09
2023-04-15T03:15:01.998Z,96200.75
2023-04-15T03:18:09.675Z,96207.09
2023-04-15T03:21:11.222Z,96199.16
2023-04-15T03:24:13.785Z,96202.81
2023-04-15T03:27:15.322Z,96194.28
2023-04-15T03:30:17.356Z,96191.41
2023-04-15T03:33:18.935Z,96188.56
2023-04-15T03:36:20.650Z,96184.50
2023-04-15T03:39:22.111Z,96189.78
2023-04-15T03:42:23.878Z,96186.94
2023-04-15T03:45:25.842Z,96178.19
2023-04-15T03:48:27.424Z,96182.88
2023-04-15T03:51:28.912Z,96188.75
2023-04-15T03:54:30.440Z,96183.66
2023-04-15T03:57:31.993Z,96187.31
2023-04-15T04:00:33.545Z,96183.44
2023-04-15T04:03:35.254Z,96185.69
2023-04-15T04:06:36.949Z,96183.63
2023-04-15T04:09:40.579Z,96183.44
2023-04-15T04:12:42.107Z,96183.25
2023-04-15T04:15:43.633Z,96192.00
2023-04-15T04:18:45.365Z,96179.19
2023-04-15T04:21:46.789Z,96184.06
2023-04-15T04:24:48.259Z,96183.25
2023-04-15T04:27:49.901Z,96183.00
2023-04-15T04:30:51.786Z,96186.25
2023-04-15T04:33:53.337Z,96188.09
2023-04-15T04:36:54.852Z,96191.34
2023-04-15T04:39:56.609Z,96202.72
2023-04-15T04:42:58.204Z,96202.47
2023-04-15T04:45:59.843Z,96212.06
2023-04-15T04:49:01.709Z,96200.47
2023-04-15T04:52:03.477Z,96196.97
2023-04-15T04:55:05.674Z,96210.41
2023-04-15T04:58:07.146Z,96207.13
2023-04-15T05:01:09.114Z,96209.56
2023-04-15T05:04:10.877Z,96215.47
2023-04-15T05:07:12.651Z,96214.00
2023-04-15T05:10:15.278Z,96209.06
2023-04-15T05:13:16.825Z,96206.22
2023-04-15T05:16:20.000Z,96214.50
2023-04-15T05:19:21.579Z,96211.38
2023-04-15T05:22:23.113Z,96208.72
2023-04-15T05:25:24.675Z,96207.22
2023-04-15T05:28:26.082Z,96217.56
2023-04-15T05:31:27.709Z,96217.09
2023-04-15T05:34:29.273Z,96222.09
2023-04-15T05:37:30.864Z,96221.63
2023-04-15T05:40:32.410Z,96221.34
2023-04-15T05:43:33.874Z,96217.84
2023-04-15T05:46:35.464Z,96218.81
2023-04-15T05:49:37.113Z,96217.50
2023-04-15T05:52:38.893Z,96223.47
2023-04-15T05:55:40.372Z,96221.22
2023-04-15T05:58:42.219Z,96219.19
2023-04-15T06:01:43.996Z,96218.28
2023-04-15T06:04:45.491Z,96220.06
2023-04-15T06:07:48.614Z,96218.72
2023-04-15T06:10:50.499Z,96217.72
2023-04-15T06:13:51.964Z,96210.34
2023-04-15T06:16:53.445Z,96223.00
2023-04-15T06:19:55.863Z,96214.19
2023-04-15T06:22:57.603Z,96214.22
2023-04-15T06:25:59.069Z,96214.03
2023-04-15T06:29:00.977Z,96212.56
2023-04-15T06:32:02.600Z,96208.25
2023-04-15T06:35:04.324Z,96218.09
2023-04-15T06:38:06.153Z,96217.66
2023-04-15T06:41:07.923Z,96213.94
2023-04-15T06:44:09.470Z,96208.13
2023-04-15T06:47:13.154Z,96216.94
2023-04-15T06:50:14.759Z,96210.47
2023-04-15T06:53:16.331Z,96205.34
2023-04-15T06:56:17.773Z,96212.88
2023-04-15T06:59:19.210Z,96217.16
2023-04-15T07:02:21.380Z,96215.06
2023-04-15T07:05:23.201Z,96212.00
2023-04-15T07:08:25.544Z,96217.06
2023-04-15T07:11:27.307Z,96210.00
2023-04-15T07:14:29.488Z,96208.50
2023-04-15T07:17:31.067Z,96205.81
2023-04-15T07:20:32.555Z,96196.41
2023-04-15T07:23:34.006Z,96197.31
2023-04-15T07:26:35.407Z,96192.13
2023-04-15T07:29:36.891Z,96204.88
2023-04-15T07:32:38.471Z,96206.00
2023-04-15T07:35:40.072Z,96202.88
2023-04-15T07:38:41.718Z,96204.28
2023-04-15T07:41:43.490Z,96204.13
2023-04-15T07:44:44.977Z,96207.34
2023-04-15T07:47:46.979Z,96205.00
2023-04-15T07:50:48.609Z,96203.88
2023-04-15T07:53:50.542Z,96203.84
2023-04-15T07:56:51.999Z,96201.22
2023-04-15T07:59:53.459Z,96204.00
2023-04-15T08:02:57.436Z,96204.31
2023-04-15T08:05:59.281Z,96204.31
2023-04-15T08:09:00.979Z,96207.03
2023-04-15T08:12:03.738Z,96210.75
2023-04-15T08:15:05.779Z,96223.22
2023-04-15T08:18:07.304Z,96220.75
2023-04-15T08:21:09.366Z,96223.91
2023-04-15T08:24:11.565Z,96212.44
2023-04-15T08:27:13.544Z,96227.94
2023-04-15T08:30:15.400Z,96222.31
2023-04-15T08:33:17.158Z,96221.84
2023-04-15T08:36:20.829Z,96229.78
2023-04-15T08:39:22.362Z,96228.28
2023-04-15T08:42:31.296Z,96234.88
2023-04-15T08:45:33.729Z,96225.66
2023-04-15T08:48:39.396Z,96236.66
2023-04-15T08:51:41.833Z,96235.78
2023-04-15T08:54:43.318Z,96240.97
2023-04-15T08:57:44.870Z,96245.13
2023-04-15T09:00:46.605Z,96241.53
2023-04-15T09:03:49.353Z,96242.81
2023-04-15T09:06:52.250Z,96245.22
2023-04-15T09:09:54.173Z,96247.78
2023-04-15T09:12:56.493Z,96248.94
2023-04-15T09:16:01.424Z,96255.22
2023-04-15T09:19:20.709Z,96257.16
2023-04-15T09:22:22.264Z,96255.88
2023-04-15T09:25:34.774Z,96262.03
2023-04-15T09:28:43.503Z,96265.47
2023-04-15T09:31:45.012Z,96275.41
2023-04-15T09:34:46.837Z,96273.41
2023-04-15T09:37:49.574Z,96270.06
2023-04-15T09:40:51.581Z,96264.91
2023-04-15T09:43:53.424Z,96271.16
2023-04-15T09:46:54.944Z,96276.34
2023-04-15T09:49:57.835Z,96287.41
2023-04-15T09:52:59.840Z,96281.00
2023-04-15T09:56:02.447Z,96287.94
2023-04-15T09:59:05.306Z,96290.38
2023-04-15T10:02:07.630Z,96285.47
2023-04-15T10:05:15.360Z,96290.25
2023-04-15T10:08:22.339Z,96287.06
2023-04-15T10:11:24.798Z,96302.13
2023-04-15T10:14:28.527Z,96297.50
2023-04-15T10:17:35.541Z,96293.63
2023-04-15T10:20:38.310Z,96283.28
2023-04-15T10:23:40.067Z,96278.75
2023-04-15T10:26:42.480Z,96295.41
2023-04-15T10:29:44.074Z,96297.47
2023-04-15T10:32:46.111Z,96295.91
2023-04-15T10:35:51.835Z,96301.00
2023-04-15T10:38:53.302Z,96311.28
2023-04-15T10:42:08.003Z,96301.13
2023-04-15T10:45:17.960Z,96309.81
2023-04-15T10:48:19.514Z,96313.03
2023-04-15T10:51:28.455Z,96313.88
2023-04-15T10:54:29.890Z,96315.22
2023-04-15T10:57:37.492Z,96314.94
2023-04-15T11:00:39.812Z,96323.03
2023-04-15T11:03:43.656Z,96322.56
2023-04-15T11:06:47.900Z,96336.25
2023-04-15T11:09:49.479Z,96329.81
2023-04-15T11:12:52.987Z,96339.44
2023-04-15T11:15:58.842Z,96338.34
2023-04-15T11:19:01.611Z,96335.84
2023-04-15T11:22:09.122Z,96338.88
2023-04-15T11:25:10.631Z,96348.78
2023-04-15T11:28:13.220Z,96360.53
2023-04-15T11:31:19.849Z,96351.94
2023-04-15T11:34:24.191Z,96356.88
2023-04-15T11:37:30.285Z,96356.84
2023-04-15T11:40:33.475Z,96372.47
2023-04-15T11:43:35.592Z,96368.94
2023-04-15T11:46:37.224Z,96378.44
2023-04-15T11:49:41.545Z,96374.78
2023-04-15T11:53:01.519Z,96381.00
2023-04-15T11:56:03.142Z,96385.09
2023-04-15T11:59:04.663Z,96392.50
2023-04-15T12:02:12.923Z,96402.47
2023-04-15T12:05:14.530Z,96404.31
2023-04-15T12:08:16.095Z,96403.00
2023-04-15T12:11:17.729Z,96413.78
2023-04-15T12:14:26.162Z,96409.69
2023-04-15T12:17:28.037Z,96416.47
2023-04-15T12:20:31.362Z,96419.31
2023-04-15T12:23:37.806Z,96417.31
2023-04-15T12:26:51.184Z,96427.31
2023-04-15T12:30:04.766Z,96423.03
2023-04-15T12:33:06.353Z,96428.66
2023-04-15T12:36:08.316Z,96437.50
2023-04-15T12:39:09.826Z,96435.44
2023-04-15T12:42:11.899Z,96433.63
2023-04-15T12:45:13.516Z,96434.63
2023-04-15T12:48:15.051Z,96444.25
2023-04-15T12:51:16.498Z,96438.88
2023-04-15T12:54:18.724Z,96453.28
2023-04-15T12:57:20.223Z,96454.09
2023-04-15T13:00:21.909Z,96456.91
2023-04-15T13:03:23.469Z,96462.88
2023-04-15T13:06:25.204Z,96465.66
2023-04-15T13:09:27.009Z,96473.28
2023-04-15T13:12:28.609Z,96475.38
2023-04-15T13:15:30.177Z,96473.53
2023-04-15T13:18:31.808Z,96482.34
2023-04-15T13:21:35.507Z,96482.22
2023-04-15T13:24:39.224Z,96488.16
2023-04-15T13:27:40.768Z,96487.09
2023-04-15T13:30:42.950Z,96494.91
2023-04-15T13:33:44.487Z,96497.94
2023-04-15T13:36:46.048Z,96489.69
2023-04-15T13:39:47.529Z,96489.84
2023-04-15T13:42:49.012Z,96491.84
2023-04-15T13:45:50.647Z,96499.25
2023-04-15T13:48:52.193Z,96504.19
2023-04-15T13:51:53.726Z,96505.28
2023-04-15T13:55:07.889Z,96509.66
2023-04-15T13:58:16.746Z,96508.38
2023-04-15T14:01:18.270Z,96497.03
2023-04-15T14:04:19.958Z,96504.56
2023-04-15T14:07:21.651Z,96510.78
2023-04-15T14:10:23.155Z,96506.28
2023-04-15T14:13:24.881Z,96515.00
2023-04-15T14:16:26.551Z,96517.25
2023-04-15T14:19:28.217Z,96521.84
2023-04-15T14:22:29.692Z,96522.91
2023-04-15T14:25:33.983Z,96535.88
2023-04-15T14:28:35.919Z,96540.75
2023-04-15T14:31:37.957Z,96542.00
2023-04-15T14:34:41.007Z,96550.75
2023-04-15T14:37:42.572Z,96554.06
2023-04-15T14:40:44.730Z,96547.13
2023-04-15T14:43:46.202Z,96559.25
2023-04-15T14:46:47.739Z,96557.63
2023-04-15T14:49:49.242Z,96560.53
2023-04-15T14:52:51.026Z,96569.94
2023-04-15T14:55:52.561Z,96561.84
2023-04-15T14:58:54.171Z,96568.88
2023-04-15T15:01:55.786Z,96561.25
2023-04-15T15:04:58.015Z,96575.56
2023-04-15T15:07:59.658Z,96573.94
2023-04-15T15:11:01.179Z,96572.03
2023-04-15T15:14:02.647Z,96574.03
2023-04-15T15:17:04.252Z,96583.78
2023-04-15T15:20:06.387Z,96594.38
2023-04-15T15:23:12.624Z,96589.16
2023-04-15T15:26:14.396Z,96593.63
2023-04-15T15:29:16.016Z,96602.50
2023-04-15T15:32:17.684Z,96603.25
2023-04-15T15:35:19.731Z,96607.06
2023-04-15T15:38:22.552Z,96608.78
2023-04-15T15:41:25.432Z,96607.63
2023-04-15T15:44:26.863Z,96620.41
2023-04-15T15:47:28.503Z,96616.94
2023-04-15T15:50:30.129Z,96624.72
2023-04-15T15:53:31.581Z,96630.56
2023-04-15T15:56:34.368Z,96630.31
2023-04-15T15:59:35.917Z,96647.72
2023-04-15T16:03:04.187Z,96649.88
2023-04-15T16:05:58.882Z,96650.19
2023-04-15T16:09:00.438Z,96650.75
2023-04-15T16:12:03.314Z,96656.22
2023-04-15T16:15:05.490Z,96652.22
2023-04-15T16:18:07.143Z,96653.69
2023-04-15T16:21:08.815Z,96653.75
2023-04-15T16:24:11.069Z,96665.69
2023-04-15T16:27:16.113Z,96670.47
2023-04-15T16:30:17.730Z,96664.59
2023-04-15T16:33:19.305Z,96677.53
2023-04-15T16:36:20.827Z,96685.41
2023-04-15T16:39:23.960Z,96684.00
2023-04-15T16:42:25.490Z,96679.69
2023-04-15T16:45:27.011Z,96681.22
2023-04-15T16:48:28.444Z,96692.84
2023-04-15T16:51:31.493Z,96704.44
2023-04-15T16:54:34.923Z,96708.56
2023-04-15T16:58:00.501Z,96709.28
2023-04-15T17:00:58.970Z,96718.53
2023-04-15T17:04:00.616Z,96728.03
2023-04-15T17:07:02.167Z,96725.41
2023-04-15T17:10:03.864Z,96728.97
2023-04-15T17:13:05.456Z,96735.81
2023-04-15T17:16:07.265Z,96741.13
2023-04-15T17:19:08.850Z,96746.00
2023-04-15T17:22:10.609Z,96745.56
2023-04-15T17:25:13.929Z,96760.53
2023-04-15T17:28:15.430Z,96768.25
2023-04-15T17:31:17.021Z,96769.63
2023-04-15T17:34:18.657Z,96774.06
2023-04-15T17:37:20.346Z,96778.03
2023-04-15T17:40:21.978Z,96778.97
2023-04-15T17:43:23.666Z,96787.88
2023-04-15T17:46:25.426Z,96786.97
2023-04-15T17:49:27.352Z,96793.13
2023-04-15T17:52:28.967Z,96803.50
2023-04-15T17:55:32.231Z,96809.81
2023-04-15T17:58:33.742Z,96810.38
2023-04-15T18:01:35.293Z,96813.16
2023-04-15T18:04:36.923Z,96824.47
2023-04-15T18:07:38.530Z,96827.28
2023-04-15T18:10:40.174Z,96833.91
2023-04-15T18:13:43.633Z,96838.78
2023-04-15T18:16:45.591Z,96848.22
2023-04-15T18:19:47.280Z,96851.47
2023-04-15T18:22:48.879Z,96851.13
2023-04-15T18:25:50.549Z,96847.50
2023-04-15T18:28:52.032Z,96843.81
2023-04-15T18:31:54.501Z,96862.97
2023-04-15T18:34:56.638Z,96874.56
2023-04-15T18:37:59.034Z,96868.66
2023-04-15T18:41:00.862Z,96884.59
2023-04-15T18:44:02.660Z,96886.47
2023-04-15T18:47:04.532Z,96890.50
2023-04-15T18:50:08.210Z,96911.91
2023-04-15T18:53:09.766Z,96910.63
2023-04-15T18:56:11.535Z,96914.00
2023-04-15T18:59:29.659Z,96914.31
2023-04-15T19:02:32.289Z,96908.56
2023-04-15T19:05:33.964Z,96921.78
2023-04-15T19:08:35.574Z,96930.81
2023-04-15T19:11:37.341Z,96928.38
2023-04-15T19:14:38.934Z,96942.34
2023-04-15T19:17:40.610Z,96955.44
2023-04-15T19:20:42.071Z,96959.25
2023-04-15T19:23:43.738Z,96963.34
2023-04-15T19:26:50.241Z,96964.81
2023-04-15T19:29:51.797Z,96968.84
2023-04-15T19:32:53.325Z,96969.44
2023-04-15T19:35:54.997Z,96974.50
2023-04-15T19:38:56.661Z,96982.81
2023-04-15T19:41:59.005Z,96985.03
2023-04-15T19:45:00.683Z,96992.78
2023-04-15T19:48:02.534Z,96999.34
2023-04-15T19:51:04.196Z,96998.84
2023-04-15T19:54:05.844Z,97004.06
2023-04-15T19:57:07.388Z,97012.66
2023-04-15T20:00:09.708Z,97028.94
2023-04-15T20:03:11.376Z,97035.84
2023-04-15T20:06:16.757Z,97040.53
2023-04-15T20:09:18.245Z,97055.06
2023-04-15T20:12:50.487Z,97059.28
2023-04-15T20:15:41.439Z,97057.38
2023-04-15T20:18:42.944Z,97064.41
2023-04-15T20:21:45.353Z,97055.88
2023-04-15T20:24:46.794Z,97068.78
2023-04-15T20:27:48.253Z,97081.50
2023-04-15T20:30:49.765Z,97070.31
2023-04-15T20:33:51.361Z,97086.84
2023-04-15T20:36:52.891Z,97087.69
2023-04-15T20:39:54.334Z,97078.00
2023-04-15T20:42:56.242Z,97089.38
2023-04-15T20:46:02.161Z,97086.41
2023-04-15T20:49:08.453Z,97087.38
2023-04-15T20:52:10.011Z,97089.03
2023-04-15T20:55:11.526Z,97083.34
2023-04-15T20:58:13.045Z,97104.34
2023-04-15T21:01:14.764Z,97099.84
2023-04-15T21:04:16.462Z,97102.13
2023-04-15T21:07:18.041Z,97105.81
2023-04-15T21:10:20.371Z,97099.84
2023-04-15T21:13:23.035Z,97107.69
2023-04-15T21:16:24.843Z,97109.94
2023-04-15T21:19:26.599Z,97107.69
2023-04-15T21:22:28.116Z,97124.88
2023-04-15T21:25:29.575Z,97120.16
2023-04-15T21:28:31.119Z,97124.50
2023-04-15T21:31:32.762Z,97126.59
2023-04-15T21:34:34.549Z,97139.88
2023-04-15T21:37:37.539Z,97146.66
2023-04-15T21:40:40.653Z,97136.44
2023-04-15T21:43:42.180Z,97145.91
2023-04-15T21:46:45.989Z,97157.97
2023-04-15T21:49:47.676Z,97150.78
2023-04-15T21:52:49.281Z,97157.53
2023-04-15T21:55:50.860Z,97166.34
2023-04-15T21:58:56.837Z,97162.47
2023-04-15T22:01:58.720Z,97167.78
2023-04-15T22:05:00.414Z,97166.97
2023-04-15T22:08:04.650Z,97175.38
2023-04-15T22:11:08.161Z,97174.13
2023-04-15T22:14:09.662Z,97178.44
2023-04-15T22:17:11.208Z,97186.63
2023-04-15T22:20:13.345Z,97193.38
2023-04-15T22:23:17.428Z,97195.03
2023-04-15T22:26:19.222Z,97188.47
2023-04-15T22:29:21.382Z,97184.78
2023-04-15T22:32:22.889Z,97184.38
2023-04-15T22:35:24.353Z,97187.25
2023-04-15T22:38:25.937Z,97194.22
2023-04-15T22:41:27.463Z,97204.25
2023-04-15T22:44:28.923Z,97203.66
2023-04-15T22:47:30.687Z,97204.66
2023-04-15T22:50:32.131Z,97196.66
2023-04-15T22:53:33.889Z,97201.78
2023-04-15T22:56:35.683Z,97213.22
2023-04-15T22:59:37.168Z,97211.00
2023-04-15T23:02:38.839Z,97214.91
2023-04-15T23:05:41.088Z,97217.75
2023-04-15T23:08:45.130Z,97222.28
2023-04-15T23:11:47.377Z,97210.38
2023-04-15T23:14:48.892Z,97221.84
2023-04-15T23:17:50.410Z,97217.97
2023-04-15T23:20:51.882Z,97216.75
2023-04-15T23:23:53.554Z,97215.50
2023-04-15T23:26:55.124Z,97217.97
2023-04-15T23:29:56.671Z,97222.06
2023-04-15T23:32:58.322Z,97224.50
2023-04-15T23:35:59.893Z,97230.66
2023-04-15T23:39:01.492Z,97231.47
2023-04-15T23:42:03.579Z,97232.91
2023-04-15T23:45:05.491Z,97228.63
2023-04-15T23:48:07.080Z,97238.03
2023-04-15T23:51:08.579Z,97238.88
2023-04-15T23:54:10.056Z,97229.66
2023-04-15T23:57:11.504Z,97229.44
